Time;durP1;ratioP1;P1;durP2;ratioP2;P2;SDS_P1;SDS_P2;PMS_P1;PMS_P2;Temp;Humidity;BMP_temperature;BMP_pressure;BME280_temperature;BME280_humidity;BME280_pressure;Samples;Min_cycle;Max_cycle;Signal;HPM_P1;HPM_P2
2022/06/04 00:00:37;;;;;;;22.40;10.05;;;12.00;99.90;;;;;;5072414;28;20123;-70
2022/06/04 00:03:04;;;;;;;20.48;9.48;;;12.10;99.90;;;;;;5071341;28;20541;-70
2022/06/04 00:05:33;;;;;;;20.40;10.23;;;12.00;99.90;;;;;;5072425;28;20530;-70
2022/06/04 00:08:00;;;;;;;22.30;10.48;;;12.00;99.90;;;;;;5071454;28;20521;-70
2022/06/04 00:15:58;;;;;;;16.27;9.90;;;11.90;99.90;;;;;;5072237;28;20510;-70
2022/06/04 00:18:24;;;;;;;21.60;9.40;;;12.00;99.90;;;;;;5072318;28;20040;-70
2022/06/04 00:20:52;;;;;;;22.48;9.88;;;12.00;99.90;;;;;;5071781;28;20032;-70
2022/06/04 00:23:18;;;;;;;18.25;8.93;;;12.00;99.90;;;;;;5070856;28;20552;-70
2022/06/04 00:25:49;;;;;;;17.25;9.73;;;11.90;99.90;;;;;;5072313;28;20445;-70
2022/06/04 00:28:15;;;;;;;17.38;9.13;;;11.90;99.90;;;;;;5070816;28;20052;-70
2022/06/04 00:30:41;;;;;;;18.70;10.13;;;11.90;99.90;;;;;;5071775;28;20056;-70
2022/06/04 00:33:07;;;;;;;18.50;10.75;;;12.00;99.90;;;;;;5071925;28;20383;-70
2022/06/04 00:35:34;;;;;;;21.52;9.93;;;12.00;99.90;;;;;;5071845;28;20041;-70
2022/06/04 00:38:00;;;;;;;25.15;11.48;;;12.00;99.90;;;;;;5070946;28;20044;-70
2022/06/04 00:40:25;;;;;;;19.65;11.30;;;11.90;99.90;;;;;;5071596;28;20036;-70
2022/06/04 00:42:54;;;;;;;20.63;11.23;;;11.90;99.90;;;;;;5071868;28;20405;-70
2022/06/04 00:45:34;;;;;;;23.88;11.38;;;11.90;99.90;;;;;;5071962;28;20055;-70
2022/06/04 00:48:03;;;;;;;17.20;11.00;;;11.80;99.90;;;;;;5070517;28;20045;-70
2022/06/04 00:50:31;;;;;;;25.13;10.68;;;11.90;99.90;;;;;;5071471;28;20551;-70
2022/06/04 00:53:00;;;;;;;25.77;13.50;;;11.80;99.90;;;;;;5071865;28;20049;-70
2022/06/04 00:55:38;;;;;;;25.52;12.02;;;11.80;99.90;;;;;;5071876;28;20037;-70
2022/06/04 00:58:09;;;;;;;27.05;13.52;;;11.80;99.90;;;;;;5071734;28;20098;-70
2022/06/04 01:00:41;;;;;;;18.58;11.68;;;11.80;99.90;;;;;;5071341;28;20040;-70
2022/06/04 01:03:21;;;;;;;24.83;12.27;;;11.80;99.90;;;;;;5071821;28;20068;-70
2022/06/04 01:06:06;;;;;;;21.92;11.98;;;11.80;99.90;;;;;;5070586;28;20040;-70
2022/06/04 01:08:43;;;;;;;20.42;11.70;;;11.80;99.90;;;;;;5071587;28;20498;-70
2022/06/04 01:12:09;;;;;;;28.83;13.80;;;11.80;99.90;;;;;;5071014;28;20115;-70
2022/06/04 01:14:56;;;;;;;26.35;12.02;;;11.80;99.90;;;;;;5071453;28;20417;-70
2022/06/04 01:17:53;;;;;;;29.55;12.52;;;11.80;99.90;;;;;;5060420;28;20048;-70
2022/06/04 01:20:24;;;;;;;20.45;11.38;;;11.70;99.90;;;;;;5071231;28;20036;-70
2022/06/04 01:23:29;;;;;;;24.50;11.52;;;11.70;99.90;;;;;;5071469;28;20533;-70
2022/06/04 01:26:32;;;;;;;26.08;12.48;;;11.70;99.90;;;;;;5071745;28;20033;-70
2022/06/04 01:29:07;;;;;;;24.55;12.35;;;11.70;99.90;;;;;;5070249;28;20051;-70
2022/06/04 01:31:40;;;;;;;26.90;12.48;;;11.70;99.90;;;;;;5071067;28;20124;-70
2022/06/04 01:34:10;;;;;;;25.67;13.77;;;11.70;99.90;;;;;;5071375;28;20387;-69
2022/06/04 01:36:45;;;;;;;29.55;12.80;;;11.70;99.90;;;;;;5070436;28;20044;-69
2022/06/04 01:39:19;;;;;;;26.27;11.27;;;11.70;99.90;;;;;;5071509;28;20041;-70
2022/06/04 01:41:50;;;;;;;25.45;13.07;;;11.60;99.90;;;;;;5069638;28;20044;-70
2022/06/04 01:44:43;;;;;;;26.77;12.18;;;11.60;99.90;;;;;;5071348;28;20033;-70
2022/06/04 01:47:09;;;;;;;29.58;13.07;;;11.60;99.90;;;;;;5068075;28;20060;-70
2022/06/04 01:49:44;;;;;;;30.25;13.57;;;11.60;99.90;;;;;;5071396;28;20560;-70
2022/06/04 01:52:15;;;;;;;28.48;13.55;;;11.60;99.90;;;;;;5070923;28;20083;-70
2022/06/04 01:54:57;;;;;;;28.77;12.52;;;11.60;99.90;;;;;;5071148;28;20032;-70
2022/06/04 01:57:26;;;;;;;20.67;11.13;;;11.60;99.90;;;;;;5070169;28;20052;-70
2022/06/04 01:59:57;;;;;;;20.77;12.00;;;11.50;99.90;;;;;;5070975;28;20517;-70
2022/06/04 02:02:29;;;;;;;24.30;11.52;;;11.50;99.90;;;;;;5071278;28;20055;-70
2022/06/04 02:05:00;;;;;;;20.10;10.93;;;11.50;99.90;;;;;;5069925;28;20040;-70
2022/06/04 02:07:48;;;;;;;24.38;12.32;;;11.50;99.90;;;;;;5071078;28;20044;-70
2022/06/04 02:10:37;;;;;;;17.83;10.60;;;11.60;99.90;;;;;;5070570;28;20498;-70
2022/06/04 02:13:09;;;;;;;19.27;10.90;;;11.60;99.90;;;;;;5071049;28;20080;-70
2022/06/04 02:16:08;;;;;;;23.23;10.63;;;11.50;99.90;;;;;;5071574;28;20082;-70
2022/06/04 02:18:34;;;;;;;17.15;9.70;;;11.50;99.90;;;;;;5074606;28;20037;-70
2022/06/04 02:21:01;;;;;;;18.92;9.98;;;11.50;99.90;;;;;;5074296;28;20051;-70
2022/06/04 02:23:29;;;;;;;17.95;10.25;;;11.50;99.90;;;;;;5073434;28;20098;-70
2022/06/04 02:25:56;;;;;;;18.10;10.23;;;11.50;99.90;;;;;;5074382;28;20090;-70
2022/06/04 02:28:22;;;;;;;23.10;11.15;;;11.40;99.90;;;;;;5074277;28;20044;-70
2022/06/04 02:31:09;;;;;;;26.17;10.98;;;11.50;99.90;;;;;;5072938;28;20051;-70
2022/06/04 02:33:44;;;;;;;20.23;10.38;;;11.50;99.90;;;;;;5074209;28;20553;-70
2022/06/04 02:36:27;;;;;;;23.80;10.80;;;11.50;99.90;;;;;;5074328;28;20040;-70
2022/06/04 02:39:02;;;;;;;20.13;11.65;;;11.50;99.90;;;;;;5074329;28;20040;-70
2022/06/04 02:41:37;;;;;;;18.85;10.88;;;11.40;99.90;;;;;;5072465;28;20040;-70
2022/06/04 02:44:16;;;;;;;25.25;10.18;;;11.40;99.90;;;;;;5072843;28;20432;-69
2022/06/04 02:46:52;;;;;;;24.73;11.25;;;11.40;99.90;;;;;;5074096;28;20490;-70
2022/06/04 02:49:23;;;;;;;24.05;11.48;;;11.40;99.90;;;;;;5074282;28;20082;-70
2022/06/04 02:51:53;;;;;;;24.42;12.05;;;11.40;99.90;;;;;;5072328;28;20032;-70
2022/06/04 02:54:52;;;;;;;24.00;11.43;;;11.40;99.90;;;;;;5055895;28;20032;-69
2022/06/04 02:57:18;;;;;;;29.85;13.18;;;11.40;99.90;;;;;;5051520;28;20052;-70
2022/06/04 02:59:46;;;;;;;23.38;12.02;;;11.30;99.90;;;;;;5072798;28;20036;-70
2022/06/04 03:02:15;;;;;;;28.88;13.07;;;11.30;99.90;;;;;;5072157;28;20066;-70
2022/06/04 03:04:44;;;;;;;25.23;11.70;;;11.30;99.90;;;;;;5072504;28;20048;-70
2022/06/04 03:07:10;;;;;;;23.17;10.85;;;11.30;99.90;;;;;;5072692;28;20052;-70
2022/06/04 03:09:38;;;;;;;22.58;10.38;;;11.20;99.90;;;;;;5073446;28;20076;-70
2022/06/04 03:12:04;;;;;;;24.27;10.55;;;11.20;99.90;;;;;;5073399;28;20044;-70
2022/06/04 03:14:30;;;;;;;23.35;10.05;;;11.20;99.90;;;;;;5073680;28;20079;-69
2022/06/04 03:16:56;;;;;;;23.20;10.55;;;11.20;99.90;;;;;;5073553;28;20064;-70
2022/06/04 03:19:21;;;;;;;22.52;10.43;;;11.20;99.90;;;;;;5073498;28;20041;-70
2022/06/04 03:21:47;;;;;;;21.27;10.80;;;11.20;99.90;;;;;;5073084;28;20032;-70
2022/06/04 03:24:15;;;;;;;23.10;10.48;;;11.10;99.90;;;;;;5073201;28;20401;-70
2022/06/04 03:26:41;;;;;;;24.17;11.13;;;11.20;99.90;;;;;;5072315;28;20186;-70
2022/06/04 03:29:07;;;;;;;24.23;10.45;;;11.20;99.90;;;;;;5073420;28;20041;-70
2022/06/04 03:31:34;;;;;;;16.90;8.38;;;11.20;99.90;;;;;;5071468;28;20040;-70
2022/06/04 03:33:59;;;;;;;21.08;9.23;;;11.20;99.90;;;;;;5073245;28;20113;-70
2022/06/04 03:36:25;;;;;;;20.92;10.00;;;11.20;99.90;;;;;;5072983;28;20509;-70
2022/06/04 03:38:55;;;;;;;18.17;9.80;;;11.20;99.90;;;;;;5072865;28;20054;-70
2022/06/04 03:41:21;;;;;;;25.52;10.45;;;11.10;99.90;;;;;;5072482;28;20505;-70
2022/06/04 03:43:51;;;;;;;27.33;11.48;;;11.10;99.90;;;;;;5073085;28;20044;-70
2022/06/04 03:46:21;;;;;;;23.45;10.30;;;11.20;99.90;;;;;;5071612;28;20044;-70
2022/06/04 03:48:47;;;;;;;22.35;10.68;;;11.10;99.90;;;;;;5071757;28;20470;-70
2022/06/04 03:51:12;;;;;;;21.35;10.40;;;11.20;99.90;;;;;;5071071;28;20133;-70
2022/06/04 03:53:38;;;;;;;24.15;9.95;;;11.10;99.90;;;;;;5072496;28;20371;-70
2022/06/04 03:56:04;;;;;;;21.73;10.07;;;11.20;99.90;;;;;;5072894;28;20059;-70
2022/06/04 03:58:30;;;;;;;17.92;9.23;;;11.20;99.90;;;;;;5072770;28;20059;-70
2022/06/04 04:00:57;;;;;;;18.65;9.10;;;11.30;99.90;;;;;;5072305;28;20036;-70
2022/06/04 04:03:24;;;;;;;19.10;10.02;;;11.20;99.90;;;;;;5072678;28;20401;-70
2022/06/04 04:05:53;;;;;;;22.17;9.57;;;11.20;99.90;;;;;;5072558;28;20036;-70
2022/06/04 04:08:23;;;;;;;22.48;10.07;;;11.30;99.90;;;;;;5072423;28;20102;-70
2022/06/04 04:10:49;;;;;;;19.05;8.50;;;11.30;99.90;;;;;;5072232;28;20040;-70
2022/06/04 04:13:16;;;;;;;22.40;9.60;;;11.30;99.90;;;;;;5072511;28;20049;-70
2022/06/04 04:15:42;;;;;;;20.80;9.10;;;11.40;99.90;;;;;;5072280;28;20463;-70
2022/06/04 04:18:08;;;;;;;18.02;8.18;;;11.40;99.90;;;;;;5071036;28;20068;-71
2022/06/04 04:20:36;;;;;;;18.35;8.95;;;11.50;99.90;;;;;;5071762;28;20488;-70
2022/06/04 04:23:04;;;;;;;13.15;8.02;;;11.50;99.90;;;;;;5072380;28;20033;-70
2022/06/04 04:25:30;;;;;;;13.55;7.80;;;11.60;99.90;;;;;;5072168;28;20524;-70
2022/06/04 04:27:56;;;;;;;15.05;7.50;;;11.60;99.90;;;;;;5072090;28;20123;-70
2022/06/04 04:30:26;;;;;;;10.48;5.82;;;11.60;99.90;;;;;;5071859;28;20448;-70
2022/06/04 04:32:52;;;;;;;10.95;5.55;;;11.70;99.90;;;;;;5072027;28;20109;-70
2022/06/04 04:35:28;;;;;;;12.48;5.90;;;11.70;99.90;;;;;;5070788;28;20097;-70
2022/06/04 04:37:54;;;;;;;7.80;5.25;;;11.70;99.90;;;;;;5070428;28;20123;-70
2022/06/04 04:40:23;;;;;;;9.82;6.20;;;11.70;99.90;;;;;;5071461;28;20570;-70
2022/06/04 04:42:49;;;;;;;10.10;6.75;;;11.80;99.90;;;;;;5072029;28;20112;-70
2022/06/04 04:45:17;;;;;;;11.88;6.25;;;12.00;99.90;;;;;;5070894;28;20076;-70
2022/06/04 04:47:44;;;;;;;15.75;7.43;;;12.20;99.90;;;;;;5070545;28;20567;-70
2022/06/04 04:50:20;;;;;;;21.42;8.25;;;12.30;99.90;;;;;;5071705;28;20091;-70
2022/06/04 04:52:46;;;;;;;14.98;7.68;;;12.40;99.90;;;;;;5071906;28;20051;-70
2022/06/04 04:55:12;;;;;;;14.20;7.72;;;12.70;99.90;;;;;;5071820;28;20041;-70
2022/06/04 04:57:38;;;;;;;10.38;6.70;;;12.80;99.90;;;;;;5071832;28;20064;-70
2022/06/04 05:00:06;;;;;;;11.88;6.88;;;13.10;99.90;;;;;;5070384;28;20071;-70
2022/06/04 05:02:33;;;;;;;10.25;6.53;;;13.20;99.90;;;;;;5071972;28;20067;-70
2022/06/04 05:04:59;;;;;;;14.35;6.38;;;13.30;99.90;;;;;;5071858;28;20525;-70
2022/06/04 05:07:24;;;;;;;12.15;6.90;;;13.50;99.90;;;;;;5071783;28;20029;-70
2022/06/04 05:09:50;;;;;;;11.50;6.30;;;13.70;99.90;;;;;;5070353;28;20040;-71
2022/06/04 05:12:16;;;;;;;12.10;6.85;;;13.90;99.90;;;;;;5071321;28;20051;-71
2022/06/04 05:14:42;;;;;;;10.95;5.95;;;14.10;99.90;;;;;;5070247;28;20037;-70
2022/06/04 05:17:08;;;;;;;13.77;5.88;;;14.20;99.90;;;;;;5071604;28;20494;-71
2022/06/04 05:19:34;;;;;;;10.40;5.47;;;14.40;99.90;;;;;;5071535;28;20048;-71
2022/06/04 05:22:00;;;;;;;9.80;5.00;;;14.40;99.90;;;;;;5071155;28;20051;-71
2022/06/04 05:24:31;;;;;;;9.52;6.53;;;14.60;99.90;;;;;;5071631;28;20032;-70
2022/06/04 05:26:58;;;;;;;12.52;6.30;;;14.80;99.90;;;;;;5071507;28;20045;-70
2022/06/04 05:29:24;;;;;;;15.57;6.43;;;14.90;99.90;;;;;;5070166;28;20555;-70
2022/06/04 05:31:52;;;;;;;7.95;5.40;;;15.10;99.90;;;;;;5071221;28;20075;-71
2022/06/04 05:34:19;;;;;;;10.10;4.68;;;15.20;99.90;;;;;;5070108;28;20052;-71
2022/06/04 05:36:46;;;;;;;8.32;4.53;;;15.30;99.90;;;;;;5070371;28;20044;-71
2022/06/04 05:39:12;;;;;;;6.30;4.47;;;15.20;99.90;;;;;;5071453;28;20132;-70
2022/06/04 05:41:38;;;;;;;9.10;5.30;;;15.30;99.90;;;;;;5070913;28;20407;-71
2022/06/04 05:44:04;;;;;;;11.93;5.60;;;15.20;99.90;;;;;;5071213;28;20044;-70
2022/06/04 05:46:31;;;;;;;5.93;4.78;;;15.40;99.90;;;;;;5071553;28;20060;-71
2022/06/04 05:48:56;;;;;;;7.55;4.25;;;15.50;99.90;;;;;;5070027;28;20051;-71
2022/06/04 05:51:25;;;;;;;8.35;4.75;;;15.60;99.90;;;;;;5074192;28;20405;-71
2022/06/04 05:53:51;;;;;;;7.72;4.97;;;15.70;99.90;;;;;;5074959;28;20044;-70
2022/06/04 05:56:19;;;;;;;12.85;5.07;;;15.80;99.90;;;;;;5073667;28;20036;-71
2022/06/04 05:58:46;;;;;;;7.43;4.82;;;15.80;99.90;;;;;;5075163;28;20404;-71
2022/06/04 06:01:15;;;;;;;5.47;3.95;;;15.80;99.90;;;;;;5074716;28;20032;-71
2022/06/04 06:03:42;;;;;;;7.68;4.30;;;15.90;99.90;;;;;;5056943;28;20040;-71
2022/06/04 06:06:16;;;;;;;7.22;4.95;;;15.90;99.90;;;;;;5057110;28;20048;-70
2022/06/04 06:08:42;;;;;;;6.78;4.47;;;16.00;99.90;;;;;;5074827;28;20036;-71
2022/06/04 06:11:11;;;;;;;8.00;4.97;;;16.00;99.90;;;;;;5073053;28;20040;-71
2022/06/04 06:13:38;;;;;;;8.75;4.97;;;15.90;99.90;;;;;;5074813;28;20532;-71
2022/06/04 06:16:06;;;;;;;8.40;4.65;;;15.60;99.90;;;;;;5074824;28;20032;-71
2022/06/04 06:18:33;;;;;;;10.18;4.93;;;15.50;99.90;;;;;;5073726;28;20036;-71
2022/06/04 06:20:59;;;;;;;8.60;4.25;;;15.60;99.90;;;;;;5073159;28;20468;-71
2022/06/04 06:23:24;;;;;;;8.82;4.65;;;15.60;99.90;;;;;;5074686;28;20034;-71
2022/06/04 06:25:52;;;;;;;7.70;4.25;;;15.60;99.90;;;;;;5073520;28;20497;-71
2022/06/04 06:28:18;;;;;;;8.02;5.45;;;15.60;99.90;;;;;;5074672;28;20045;-71
2022/06/04 06:30:44;;;;;;;7.55;5.22;;;15.40;99.90;;;;;;5074156;28;20047;-71
2022/06/04 06:33:09;;;;;;;9.77;4.85;;;15.30;99.90;;;;;;5074241;28;20089;-71
2022/06/04 06:35:35;;;;;;;6.30;4.93;;;15.50;99.90;;;;;;5074320;28;20033;-71
2022/06/04 06:38:00;;;;;;;6.72;4.78;;;15.50;99.90;;;;;;5074190;28;20614;-72
2022/06/04 06:40:26;;;;;;;8.80;5.28;;;15.60;99.90;;;;;;5072461;28;20075;-72
2022/06/04 06:42:51;;;;;;;9.60;5.10;;;15.80;99.90;;;;;;5074463;28;20036;-71
2022/06/04 06:45:17;;;;;;;6.35;4.82;;;15.80;99.90;;;;;;5074243;28;20038;-71
2022/06/04 06:47:44;;;;;;;7.30;4.70;;;15.80;99.90;;;;;;5074091;28;20194;-71
2022/06/04 06:50:12;;;;;;;6.75;4.63;;;15.80;99.90;;;;;;5073709;28;20084;-71
2022/06/04 06:52:37;;;;;;;8.20;4.50;;;16.00;99.90;;;;;;5072538;28;20124;-71
2022/06/04 06:55:03;;;;;;;5.18;4.15;;;16.60;99.90;;;;;;5072895;28;20128;-70
2022/06/04 06:57:29;;;;;;;6.32;4.55;;;17.10;99.90;;;;;;5055942;28;20475;-70
2022/06/04 06:59:55;;;;;;;8.40;4.25;;;17.20;99.90;;;;;;5073718;28;20051;-71
2022/06/04 07:02:20;;;;;;;7.53;4.93;;;17.40;99.70;;;;;;5073434;28;20074;-71
2022/06/04 07:04:46;;;;;;;8.02;4.80;;;17.80;98.80;;;;;;5073734;28;20033;-70
2022/06/04 07:07:11;;;;;;;7.47;4.72;;;17.70;98.90;;;;;;5073685;28;20044;-71
2022/06/04 07:09:39;;;;;;;6.97;4.32;;;18.10;98.50;;;;;;5073581;28;20036;-70
2022/06/04 07:12:07;;;;;;;5.57;3.60;;;18.20;97.60;;;;;;5073396;28;20044;-71
2022/06/04 07:14:33;;;;;;;6.35;4.22;;;18.50;96.60;;;;;;5073699;28;20068;-71
2022/06/04 07:17:00;;;;;;;6.53;3.83;;;18.60;96.50;;;;;;5073587;28;20506;-71
2022/06/04 07:19:26;;;;;;;5.00;3.30;;;18.90;95.80;;;;;;5073514;28;20111;-71
2022/06/04 07:21:54;;;;;;;4.25;3.58;;;19.00;94.70;;;;;;5072624;28;20036;-71
2022/06/04 07:24:20;;;;;;;5.57;3.92;;;19.20;93.90;;;;;;5071698;28;20044;-71
2022/06/04 07:26:46;;;;;;;6.18;4.18;;;19.00;93.70;;;;;;5072585;28;20068;-71
2022/06/04 07:29:12;;;;;;;4.47;3.78;;;19.10;93.70;;;;;;5072802;28;20040;-71
2022/06/04 07:31:38;;;;;;;8.30;3.60;;;19.20;93.00;;;;;;5072317;28;20032;-71
2022/06/04 07:34:05;;;;;;;6.70;3.50;;;18.80;93.00;;;;;;5072519;28;20065;-71
2022/06/04 07:36:36;;;;;;;5.82;4.40;;;19.10;92.70;;;;;;5072621;28;20429;-71
2022/06/04 07:39:06;;;;;;;5.35;4.25;;;19.40;91.80;;;;;;5073214;28;20039;-71
2022/06/04 07:41:35;;;;;;;7.70;4.50;;;19.40;91.40;;;;;;5072386;28;20037;-70
2022/06/04 07:44:01;;;;;;;7.68;4.70;;;18.90;91.90;;;;;;5073132;28;20106;-70
2022/06/04 07:46:29;;;;;;;5.53;4.28;;;18.90;91.90;;;;;;5072796;28;20498;-70
2022/06/04 07:49:00;;;;;;;6.35;3.72;;;18.70;91.60;;;;;;5072722;28;20045;-70
2022/06/04 07:51:27;;;;;;;6.20;3.90;;;18.50;92.00;;;;;;5071278;28;20098;-70
2022/06/04 07:53:52;;;;;;;6.45;5.00;;;19.00;90.90;;;;;;5072853;28;20407;-70
2022/06/04 07:56:19;;;;;;;9.05;4.22;;;19.10;91.00;;;;;;5072668;28;20066;-70
2022/06/04 07:58:45;;;;;;;7.28;4.10;;;18.90;91.20;;;;;;5072617;28;20397;-70
2022/06/04 08:01:16;;;;;;;5.95;3.55;;;18.90;91.40;;;;;;5072261;28;20409;-70
2022/06/04 08:03:45;;;;;;;4.93;3.85;;;19.20;91.80;;;;;;5071199;28;20414;-70
2022/06/04 08:06:13;;;;;;;10.20;4.28;;;19.40;90.20;;;;;;5071421;28;20049;-70
2022/06/04 08:08:40;;;;;;;7.55;4.03;;;19.50;90.50;;;;;;5071410;28;20067;-69
2022/06/04 08:11:30;;;;;;;8.00;4.20;;;19.70;90.30;;;;;;5072092;28;20040;-70
2022/06/04 08:13:52;;;;;;;6.50;4.15;;;19.80;89.90;;;;;;5070247;28;20102;-70
2022/06/04 08:16:19;;;;;;;5.40;3.85;;;19.90;88.00;;;;;;5071004;28;20044;-70
2022/06/04 08:18:45;;;;;;;5.88;3.70;;;19.80;85.30;;;;;;5072461;28;20116;-70
2022/06/04 08:21:11;;;;;;;5.60;4.40;;;19.90;85.60;;;;;;5071225;28;20414;-70
2022/06/04 08:23:39;;;;;;;5.15;4.05;;;20.10;84.80;;;;;;5072327;28;20044;-70
2022/06/04 08:26:07;;;;;;;11.77;5.28;;;19.70;86.10;;;;;;5072229;28;20044;-70
2022/06/04 08:28:33;;;;;;;5.85;4.20;;;19.80;86.20;;;;;;5070998;28;20037;-70
2022/06/04 08:31:06;;;;;;;4.97;3.97;;;19.70;85.70;;;;;;5071676;28;20048;-70
2022/06/04 08:33:32;;;;;;;4.47;3.70;;;20.00;84.60;;;;;;5072147;28;20041;-70
2022/06/04 08:35:57;;;;;;;4.95;3.63;;;20.00;84.60;;;;;;5072050;28;20670;-70
2022/06/04 08:38:23;;;;;;;5.38;3.63;;;19.90;86.00;;;;;;5070732;28;20090;-70
2022/06/04 08:40:56;;;;;;;5.32;3.60;;;20.40;84.10;;;;;;5071387;28;20075;-70
2022/06/04 08:43:30;;;;;;;6.35;3.15;;;20.30;82.20;;;;;;5070585;28;20048;-70
2022/06/04 08:45:57;;;;;;;7.45;4.40;;;19.80;83.20;;;;;;5070818;28;20094;-70
2022/06/04 08:48:30;;;;;;;6.70;3.72;;;19.80;84.70;;;;;;5071774;28;20045;-70
2022/06/04 08:50:56;;;;;;;8.02;3.80;;;19.80;83.30;;;;;;5071538;28;20074;-70
2022/06/04 08:53:27;;;;;;;6.22;3.88;;;20.10;82.60;;;;;;5071645;28;20041;-70
2022/06/04 08:59:08;;;;;;;6.10;3.80;;;20.30;82.00;;;;;;5071266;28;20093;-70
2022/06/04 09:01:40;;;;;;;7.60;3.15;;;20.10;82.60;;;;;;5067480;28;20090;-70
2022/06/04 09:04:35;;;;;;;6.03;3.63;;;20.30;81.10;;;;;;5071133;28;20059;-70
2022/06/04 09:07:18;;;;;;;5.82;3.05;;;20.30;81.20;;;;;;5033129;28;20059;-70
2022/06/04 09:09:53;;;;;;;5.68;3.60;;;20.10;77.10;;;;;;5070239;28;20040;-70
2022/06/04 09:12:34;;;;;;;6.32;3.22;;;20.30;76.10;;;;;;5068291;28;20044;-70
2022/06/04 09:15:12;;;;;;;5.32;3.58;;;20.10;76.40;;;;;;5068302;28;20419;-70
2022/06/04 09:17:50;;;;;;;4.38;2.78;;;20.20;78.30;;;;;;5068922;28;20044;-70
2022/06/04 09:20:34;;;;;;;5.68;3.22;;;20.50;76.20;;;;;;5070638;28;20033;-70
2022/06/04 09:23:18;;;;;;;5.38;3.42;;;20.40;75.10;;;;;;5070231;28;20529;-71
2022/06/04 09:26:12;;;;;;;4.03;3.20;;;20.30;74.90;;;;;;5073974;28;20044;-70
2022/06/04 09:28:56;;;;;;;4.93;3.33;;;20.20;74.70;;;;;;5072497;28;20040;-71
2022/06/04 09:31:31;;;;;;;7.22;3.47;;;20.50;76.10;;;;;;5056595;28;20044;-70
2022/06/04 09:34:01;;;;;;;6.22;3.10;;;20.10;77.20;;;;;;5073615;28;20040;-71
2022/06/04 09:36:34;;;;;;;6.22;3.83;;;20.40;79.00;;;;;;5074154;28;20632;-71
2022/06/04 09:38:59;;;;;;;;;;;19.80;76.70;;;;;;5075817;28;20040;-71
2022/06/04 09:41:28;;;;;;;8.75;3.00;;;19.50;79.90;;;;;;5074733;28;19916;-72
2022/06/04 09:44:04;;;;;;;5.43;3.67;;;19.60;81.80;;;;;;5075406;28;20067;-70
2022/06/04 09:46:30;;;;;;;6.45;2.97;;;19.40;82.90;;;;;;5075318;28;20040;-70
2022/06/04 09:48:57;;;;;;;5.60;3.60;;;19.50;82.40;;;;;;5075258;28;20472;-69
2022/06/04 09:51:27;;;;;;;6.15;3.40;;;19.40;81.40;;;;;;5074815;28;20040;-70
2022/06/04 09:54:05;;;;;;;5.93;3.17;;;19.30;82.00;;;;;;5074975;28;20068;-70
2022/06/04 09:56:40;;;;;;;4.32;2.97;;;19.40;83.00;;;;;;5075246;28;20402;-70
2022/06/04 09:59:25;;;;;;;8.02;3.30;;;19.00;83.90;;;;;;5074989;28;20416;-69
2022/06/04 10:02:09;;;;;;;5.68;3.15;;;19.10;83.30;;;;;;5073552;28;20119;-70
2022/06/04 10:04:45;;;;;;;6.25;3.30;;;18.90;83.00;;;;;;5073532;28;20041;-69
2022/06/04 10:07:27;;;;;;;4.15;3.00;;;18.70;85.10;;;;;;5075047;28;20041;-70
2022/06/04 10:09:56;;;;;;;4.22;3.15;;;18.80;85.70;;;;;;5074661;28;20409;-70
2022/06/04 10:15:41;;;;;;;5.00;3.70;;;19.10;86.20;;;;;;5074569;28;20486;-70
2022/06/04 10:18:22;;;;;;;3.92;3.20;;;19.10;84.90;;;;;;5074733;28;20042;-69
2022/06/04 10:21:03;;;;;;;5.30;3.15;;;19.10;84.20;;;;;;5074223;28;20066;-70
2022/06/04 10:23:40;;;;;;;6.40;4.45;;;19.20;84.20;;;;;;5074600;28;20040;-70
2022/06/04 10:26:18;;;;;;;4.18;2.85;;;19.20;84.80;;;;;;5074661;28;20041;-70
2022/06/04 10:29:26;;;;;;;5.82;3.10;;;19.30;82.80;;;;;;5056522;28;20063;-71
2022/06/04 10:31:54;;;;;;;5.60;3.13;;;19.50;85.10;;;;;;5044362;28;20092;-70
2022/06/04 10:35:00;;;;;;;3.58;2.75;;;19.30;86.90;;;;;;5074291;28;20559;-70
2022/06/04 10:37:39;;;;;;;4.50;3.20;;;19.40;87.00;;;;;;5073982;28;20044;-70
2022/06/04 10:40:52;;;;;;;4.72;3.50;;;19.40;85.90;;;;;;5073561;28;20047;-70
2022/06/04 10:43:45;;;;;;;6.15;3.35;;;19.70;88.80;;;;;;5074198;28;20052;-69
2022/06/04 10:46:38;;;;;;;6.07;3.00;;;19.40;88.70;;;;;;5073855;28;20049;-68
2022/06/04 10:49:15;;;;;;;5.20;3.00;;;19.40;88.80;;;;;;5074139;28;20053;-69
2022/06/04 10:52:05;;;;;;;5.25;2.88;;;19.40;89.50;;;;;;5073055;28;20528;-70
2022/06/04 10:54:57;;;;;;;6.93;3.20;;;19.50;89.70;;;;;;5072327;28;20052;-69
2022/06/04 10:57:28;;;;;;;6.53;3.53;;;19.30;90.70;;;;;;5058498;28;20052;-69
2022/06/04 11:00:16;;;;;;;5.15;3.30;;;19.70;89.90;;;;;;5073663;28;20040;-69
2022/06/04 11:02:55;;;;;;;4.30;3.47;;;19.60;89.50;;;;;;5072294;28;20072;-69
2022/06/04 11:05:29;;;;;;;7.75;3.40;;;19.30;89.20;;;;;;5053811;28;20462;-69
2022/06/04 11:08:09;;;;;;;5.20;3.15;;;19.40;90.10;;;;;;5053881;28;20069;-69
2022/06/04 11:10:39;;;;;;;4.55;3.40;;;19.20;90.40;;;;;;5053385;28;20067;-69
2022/06/04 11:13:25;;;;;;;4.55;3.38;;;19.30;90.30;;;;;;5053433;28;20123;-69
2022/06/04 11:16:13;;;;;;;5.20;3.20;;;19.20;90.90;;;;;;5053763;28;20045;-69
2022/06/04 11:18:47;;;;;;;7.78;3.92;;;19.50;91.40;;;;;;5053565;28;20033;-69
2022/06/04 11:21:36;;;;;;;7.45;4.00;;;19.40;91.50;;;;;;5051921;28;20033;-69
2022/06/04 11:24:11;;;;;;;4.20;3.40;;;19.30;91.40;;;;;;5053578;28;20072;-69
2022/06/04 11:27:08;;;;;;;8.60;3.58;;;19.30;91.80;;;;;;5053455;28;20041;-69
2022/06/04 11:29:36;;;;;;;5.97;3.92;;;19.00;92.00;;;;;;5053278;28;20045;-69
2022/06/04 11:32:27;;;;;;;6.10;3.95;;;19.00;91.80;;;;;;5052789;28;20423;-69
2022/06/04 11:35:17;;;;;;;10.05;3.58;;;18.90;92.00;;;;;;5051846;28;20072;-69
2022/06/04 11:38:20;;;;;;;8.10;3.53;;;18.90;92.60;;;;;;5053137;28;20147;-69
2022/06/04 11:41:01;;;;;;;5.82;3.78;;;19.20;92.30;;;;;;5052586;28;20033;-69
2022/06/04 11:43:55;;;;;;;6.05;3.95;;;19.30;92.60;;;;;;5053106;28;20048;-67
2022/06/04 11:46:35;;;;;;;6.00;3.72;;;19.30;91.80;;;;;;5063279;28;20048;-67
2022/06/04 11:49:01;;;;;;;9.27;3.95;;;19.10;92.20;;;;;;5070380;28;20551;-69
2022/06/04 11:51:54;;;;;;;8.70;4.05;;;19.30;92.10;;;;;;5071942;28;20036;-69
2022/06/04 11:54:33;;;;;;;;;;;19.20;92.30;;;;;;5071475;28;20052;-68
2022/06/04 11:57:04;;;;;;;7.03;3.30;;;19.10;92.30;;;;;;5069859;28;19916;-68
2022/06/04 12:00:08;;;;;;;7.22;3.72;;;19.00;92.50;;;;;;5066992;28;20498;-68
2022/06/04 12:03:05;;;;;;;5.93;3.85;;;18.70;92.20;;;;;;5041105;28;20131;-68
2022/06/04 12:05:34;;;;;;;6.53;3.90;;;19.10;92.60;;;;;;5053457;28;20076;-68
2022/06/04 12:08:10;;;;;;;10.35;4.15;;;19.00;92.10;;;;;;5109442;27;20897;-67
2022/06/04 12:10:48;;;;;;;14.70;4.82;;;18.90;92.30;;;;;;5099694;28;20444;-67
2022/06/04 12:13:32;;;;;;;9.27;4.07;;;19.00;92.00;;;;;;5086202;28;20409;-67
2022/06/04 12:16:01;;;;;;;8.50;4.68;;;18.80;92.40;;;;;;5086867;28;20032;-67
2022/06/04 12:18:35;;;;;;;7.05;4.20;;;18.80;93.40;;;;;;5088864;28;20033;-67
2022/06/04 12:24:26;;;;;;;7.63;4.40;;;18.90;93.30;;;;;;5087277;28;20040;-67
2022/06/04 12:27:24;;;;;;;6.63;3.97;;;18.90;92.60;;;;;;5088420;28;20039;-69
2022/06/04 12:29:55;;;;;;;6.05;4.15;;;19.10;91.70;;;;;;5087998;28;20029;-68
2022/06/04 12:32:41;;;;;;;7.85;3.85;;;19.10;92.30;;;;;;5086203;28;20040;-68
2022/06/04 12:35:21;;;;;;;6.03;3.67;;;19.20;92.40;;;;;;5087654;28;20040;-68
2022/06/04 12:37:56;;;;;;;18.48;7.25;;;19.10;93.20;;;;;;5087600;28;20085;-69
2022/06/04 12:40:24;;;;;;;8.52;4.35;;;19.30;92.90;;;;;;5086651;28;20383;-69
2022/06/04 12:43:19;;;;;;;13.77;5.22;;;19.40;92.20;;;;;;5088593;28;20113;-69
2022/06/04 12:45:48;;;;;;;10.98;4.40;;;19.10;91.70;;;;;;5088600;28;20040;-69
2022/06/04 12:48:32;;;;;;;9.25;4.25;;;19.20;92.00;;;;;;5087585;28;20052;-69
2022/06/04 12:51:03;;;;;;;7.82;4.30;;;19.30;91.80;;;;;;5088131;28;20450;-69
2022/06/04 12:53:31;;;;;;;10.00;4.10;;;19.20;91.70;;;;;;5088679;28;20050;-68
2022/06/04 12:56:02;;;;;;;7.57;4.63;;;19.00;92.70;;;;;;5088406;28;20444;-71
2022/06/04 12:58:30;;;;;;;9.80;4.97;;;19.00;93.20;;;;;;5087204;28;20044;-67
2022/06/04 13:01:02;;;;;;;8.05;3.75;;;19.00;93.40;;;;;;5088141;28;20066;-68
2022/06/04 13:03:34;;;;;;;8.18;4.47;;;19.50;92.70;;;;;;5088364;28;20481;-68
2022/06/04 13:06:02;;;;;;;6.50;3.78;;;19.20;92.50;;;;;;5088142;28;20490;-68
2022/06/04 13:08:49;;;;;;;8.38;4.75;;;19.20;92.80;;;;;;5088365;28;20041;-68
2022/06/04 13:11:34;;;;;;;9.95;4.97;;;19.10;92.60;;;;;;5085633;28;20040;-68
2022/06/04 13:14:23;;;;;;;7.15;4.00;;;19.40;91.60;;;;;;5086450;28;20082;-68
2022/06/04 13:16:52;;;;;;;8.50;4.20;;;19.50;92.20;;;;;;5085184;28;20048;-68
2022/06/04 13:19:56;;;;;;;11.27;4.57;;;19.50;92.40;;;;;;5075591;28;20055;-68
2022/06/04 13:22:41;;;;;;;7.47;3.88;;;19.60;90.90;;;;;;5074343;28;20040;-69
2022/06/04 13:25:12;;;;;;;9.80;3.97;;;19.30;91.70;;;;;;5074588;28;20036;-69